Juan Santamar?a International Airport (SJO/MROC)




Flight Aircraft Arriving
CPX618 B763
KMIA - Miami International Airport
United StatesFlorida Miami, Florida
Flight Aircraft Departing
CPX619 B763
KMIA - Miami International Airport
United StatesFlorida Miami, Florida
Airport Information
Location: San Jose, CR
Coordinates: 9.9939 / -84.2089
Elevation:
Time Offset:
Local Time:
UTC Time:
Jet A Price: $0.62/lbs

Current Weather
METAR: MROC 050700Z 08008KT 060V120 CAVOK 22/17 A2994 NOSIG
TAF: MROC 050500Z 0506/0606 09010KT 9999 FEW045 TX32/0519Z TN20/0510Z TEMPO 0519/0523 25007KT

Recent Arrivals
Date Flight Type Depart
06/21/2019 CPX719 B763 Miami International Airport (KMIA)
Recent Departures
Date Flight Type Arrive
06/21/2019 CPX718 B763 Miami International Airport (KMIA)